sensor_id;sensor_type;location;lat;lon;timestamp;P1;durP1;ratioP1;P2;durP2;ratioP2
52878;SDS011;38747;53.140;6.498;2023-11-21T00:02:13;10.53;;;3.13;;
52878;SDS011;38747;53.140;6.498;2023-11-21T00:04:39;15.07;;;4.05;;
52878;SDS011;38747;53.140;6.498;2023-11-21T00:07:04;11.67;;;3.90;;
52878;SDS011;38747;53.140;6.498;2023-11-21T00:09:31;18.60;;;4.45;;
52878;SDS011;38747;53.140;6.498;2023-11-21T00:11:57;15.15;;;4.47;;
52878;SDS011;38747;53.140;6.498;2023-11-21T00:14:24;16.47;;;4.50;;
52878;SDS011;38747;53.140;6.498;2023-11-21T00:16:50;16.02;;;4.70;;
52878;SDS011;38747;53.140;6.498;2023-11-21T00:19:15;12.50;;;4.00;;
52878;SDS011;38747;53.140;6.498;2023-11-21T00:21:42;14.90;;;3.90;;
52878;SDS011;38747;53.140;6.498;2023-11-21T00:24:10;19.27;;;4.82;;
52878;SDS011;38747;53.140;6.498;2023-11-21T00:26:38;11.07;;;4.32;;
52878;SDS011;38747;53.140;6.498;2023-11-21T00:29:05;18.52;;;4.32;;
52878;SDS011;38747;53.140;6.498;2023-11-21T00:31:34;13.53;;;4.20;;
52878;SDS011;38747;53.140;6.498;2023-11-21T00:34:02;14.38;;;5.20;;
52878;SDS011;38747;53.140;6.498;2023-11-21T00:36:31;15.75;;;4.75;;
52878;SDS011;38747;53.140;6.498;2023-11-21T00:38:57;18.33;;;4.97;;
52878;SDS011;38747;53.140;6.498;2023-11-21T00:41:24;17.27;;;5.22;;
52878;SDS011;38747;53.140;6.498;2023-11-21T00:43:52;18.00;;;4.80;;
52878;SDS011;38747;53.140;6.498;2023-11-21T00:46:18;15.85;;;4.80;;
52878;SDS011;38747;53.140;6.498;2023-11-21T00:48:44;17.75;;;5.38;;
52878;SDS011;38747;53.140;6.498;2023-11-21T00:51:09;18.63;;;4.67;;
52878;SDS011;38747;53.140;6.498;2023-11-21T00:53:35;18.10;;;4.90;;
52878;SDS011;38747;53.140;6.498;2023-11-21T00:56:00;19.80;;;4.90;;
52878;SDS011;38747;53.140;6.498;2023-11-21T00:58:27;15.63;;;4.78;;
52878;SDS011;38747;53.140;6.498;2023-11-21T01:00:53;15.10;;;4.33;;
52878;SDS011;38747;53.140;6.498;2023-11-21T01:03:19;18.52;;;4.90;;
52878;SDS011;38747;53.140;6.498;2023-11-21T01:05:45;14.32;;;4.38;;
52878;SDS011;38747;53.140;6.498;2023-11-21T01:08:11;18.53;;;4.67;;
52878;SDS011;38747;53.140;6.498;2023-11-21T01:10:37;15.45;;;4.68;;
52878;SDS011;38747;53.140;6.498;2023-11-21T01:13:02;14.90;;;4.80;;
52878;SDS011;38747;53.140;6.498;2023-11-21T01:15:32;16.95;;;4.07;;
52878;SDS011;38747;53.140;6.498;2023-11-21T01:18:01;16.65;;;4.60;;
52878;SDS011;38747;53.140;6.498;2023-11-21T01:20:26;14.73;;;4.50;;
52878;SDS011;38747;53.140;6.498;2023-11-21T01:22:52;16.13;;;4.82;;
52878;SDS011;38747;53.140;6.498;2023-11-21T01:25:18;14.20;;;4.53;;
52878;SDS011;38747;53.140;6.498;2023-11-21T01:27:46;16.83;;;4.97;;
52878;SDS011;38747;53.140;6.498;2023-11-21T01:30:12;21.23;;;5.28;;
52878;SDS011;38747;53.140;6.498;2023-11-21T01:32:38;21.15;;;5.20;;
52878;SDS011;38747;53.140;6.498;2023-11-21T01:35:04;15.50;;;5.15;;
52878;SDS011;38747;53.140;6.498;2023-11-21T01:37:35;18.23;;;5.37;;
52878;SDS011;38747;53.140;6.498;2023-11-21T01:40:00;16.02;;;4.63;;
52878;SDS011;38747;53.140;6.498;2023-11-21T01:42:27;19.63;;;4.82;;
52878;SDS011;38747;53.140;6.498;2023-11-21T01:44:54;22.70;;;5.05;;
52878;SDS011;38747;53.140;6.498;2023-11-21T01:47:20;24.70;;;5.20;;
52878;SDS011;38747;53.140;6.498;2023-11-21T01:49:46;18.42;;;5.45;;
52878;SDS011;38747;53.140;6.498;2023-11-21T01:52:12;23.38;;;5.82;;
52878;SDS011;38747;53.140;6.498;2023-11-21T01:54:38;15.98;;;4.88;;
52878;SDS011;38747;53.140;6.498;2023-11-21T01:57:04;30.37;;;5.40;;
52878;SDS011;38747;53.140;6.498;2023-11-21T01:59:35;15.52;;;5.35;;
52878;SDS011;38747;53.140;6.498;2023-11-21T02:02:05;16.50;;;5.10;;
52878;SDS011;38747;53.140;6.498;2023-11-21T02:04:32;17.52;;;5.13;;
52878;SDS011;38747;53.140;6.498;2023-11-21T02:06:59;19.63;;;5.30;;
52878;SDS011;38747;53.140;6.498;2023-11-21T02:09:28;19.07;;;5.20;;
52878;SDS011;38747;53.140;6.498;2023-11-21T02:11:58;20.33;;;5.30;;
52878;SDS011;38747;53.140;6.498;2023-11-21T02:14:24;22.55;;;5.30;;
52878;SDS011;38747;53.140;6.498;2023-11-21T02:16:53;20.77;;;5.93;;
52878;SDS011;38747;53.140;6.498;2023-11-21T02:19:22;16.10;;;5.17;;
52878;SDS011;38747;53.140;6.498;2023-11-21T02:21:50;19.73;;;6.05;;
52878;SDS011;38747;53.140;6.498;2023-11-21T02:24:20;16.90;;;5.93;;
52878;SDS011;38747;53.140;6.498;2023-11-21T02:26:47;19.52;;;4.80;;
52878;SDS011;38747;53.140;6.498;2023-11-21T02:29:14;21.13;;;5.28;;
52878;SDS011;38747;53.140;6.498;2023-11-21T02:31:43;26.70;;;5.80;;
52878;SDS011;38747;53.140;6.498;2023-11-21T02:34:16;20.77;;;5.45;;
52878;SDS011;38747;53.140;6.498;2023-11-21T02:36:42;17.00;;;5.07;;
52878;SDS011;38747;53.140;6.498;2023-11-21T02:39:09;20.75;;;5.22;;
52878;SDS011;38747;53.140;6.498;2023-11-21T02:41:39;23.25;;;5.00;;
52878;SDS011;38747;53.140;6.498;2023-11-21T02:44:05;21.20;;;4.93;;
52878;SDS011;38747;53.140;6.498;2023-11-21T02:46:35;17.45;;;4.85;;
52878;SDS011;38747;53.140;6.498;2023-11-21T02:49:01;20.83;;;6.03;;
52878;SDS011;38747;53.140;6.498;2023-11-21T02:51:27;19.92;;;6.25;;
52878;SDS011;38747;53.140;6.498;2023-11-21T02:53:53;22.08;;;5.35;;
52878;SDS011;38747;53.140;6.498;2023-11-21T02:56:19;22.57;;;5.90;;
52878;SDS011;38747;53.140;6.498;2023-11-21T02:58:45;21.85;;;5.70;;
52878;SDS011;38747;53.140;6.498;2023-11-21T03:01:10;17.57;;;5.67;;
52878;SDS011;38747;53.140;6.498;2023-11-21T03:03:37;18.92;;;5.57;;
52878;SDS011;38747;53.140;6.498;2023-11-21T03:06:05;22.27;;;6.00;;
52878;SDS011;38747;53.140;6.498;2023-11-21T03:08:31;18.20;;;5.93;;
52878;SDS011;38747;53.140;6.498;2023-11-21T03:10:57;24.65;;;5.78;;
52878;SDS011;38747;53.140;6.498;2023-11-21T03:13:23;19.30;;;5.40;;
52878;SDS011;38747;53.140;6.498;2023-11-21T03:15:48;19.57;;;6.00;;
52878;SDS011;38747;53.140;6.498;2023-11-21T03:18:14;22.60;;;5.90;;
52878;SDS011;38747;53.140;6.498;2023-11-21T03:20:40;24.42;;;6.22;;
52878;SDS011;38747;53.140;6.498;2023-11-21T03:23:06;20.23;;;6.43;;
52878;SDS011;38747;53.140;6.498;2023-11-21T03:25:32;23.85;;;6.28;;
52878;SDS011;38747;53.140;6.498;2023-11-21T03:27:57;20.23;;;6.13;;
52878;SDS011;38747;53.140;6.498;2023-11-21T03:30:23;25.77;;;6.90;;
52878;SDS011;38747;53.140;6.498;2023-11-21T03:32:48;24.50;;;6.67;;
52878;SDS011;38747;53.140;6.498;2023-11-21T03:35:14;27.27;;;6.18;;
52878;SDS011;38747;53.140;6.498;2023-11-21T03:37:40;20.90;;;6.40;;
52878;SDS011;38747;53.140;6.498;2023-11-21T03:40:07;19.90;;;6.03;;
52878;SDS011;38747;53.140;6.498;2023-11-21T03:42:37;23.35;;;5.93;;
52878;SDS011;38747;53.140;6.498;2023-11-21T03:45:04;16.23;;;5.40;;
52878;SDS011;38747;53.140;6.498;2023-11-21T03:47:33;22.42;;;5.72;;
52878;SDS011;38747;53.140;6.498;2023-11-21T03:49:59;20.98;;;5.75;;
52878;SDS011;38747;53.140;6.498;2023-11-21T03:52:25;29.35;;;6.90;;
52878;SDS011;38747;53.140;6.498;2023-11-21T03:54:52;25.73;;;6.47;;
52878;SDS011;38747;53.140;6.498;2023-11-21T03:57:17;23.47;;;6.37;;
52878;SDS011;38747;53.140;6.498;2023-11-21T03:59:43;24.60;;;6.10;;
52878;SDS011;38747;53.140;6.498;2023-11-21T04:02:09;21.17;;;6.23;;
52878;SDS011;38747;53.140;6.498;2023-11-21T04:04:35;22.27;;;5.50;;
52878;SDS011;38747;53.140;6.498;2023-11-21T04:07:01;20.23;;;5.75;;
52878;SDS011;38747;53.140;6.498;2023-11-21T04:09:26;19.88;;;6.25;;
52878;SDS011;38747;53.140;6.498;2023-11-21T04:11:53;23.17;;;5.95;;
52878;SDS011;38747;53.140;6.498;2023-11-21T04:14:19;22.93;;;5.63;;
52878;SDS011;38747;53.140;6.498;2023-11-21T04:16:45;20.85;;;5.70;;
52878;SDS011;38747;53.140;6.498;2023-11-21T04:19:10;17.90;;;5.70;;
52878;SDS011;38747;53.140;6.498;2023-11-21T04:21:36;20.85;;;5.85;;
52878;SDS011;38747;53.140;6.498;2023-11-21T04:24:02;17.92;;;5.35;;
52878;SDS011;38747;53.140;6.498;2023-11-21T04:26:28;23.50;;;5.57;;
52878;SDS011;38747;53.140;6.498;2023-11-21T04:28:53;21.17;;;5.80;;
52878;SDS011;38747;53.140;6.498;2023-11-21T04:31:19;18.77;;;6.23;;
52878;SDS011;38747;53.140;6.498;2023-11-21T04:33:45;19.10;;;6.33;;
52878;SDS011;38747;53.140;6.498;2023-11-21T04:36:10;19.23;;;6.20;;
52878;SDS011;38747;53.140;6.498;2023-11-21T04:38:36;17.10;;;6.80;;
52878;SDS011;38747;53.140;6.498;2023-11-21T04:41:01;23.58;;;5.95;;
52878;SDS011;38747;53.140;6.498;2023-11-21T04:43:27;21.70;;;6.20;;
52878;SDS011;38747;53.140;6.498;2023-11-21T04:45:53;24.30;;;6.43;;
52878;SDS011;38747;53.140;6.498;2023-11-21T04:48:19;21.40;;;6.80;;
52878;SDS011;38747;53.140;6.498;2023-11-21T04:50:45;19.00;;;6.03;;
52878;SDS011;38747;53.140;6.498;2023-11-21T04:53:11;23.27;;;6.90;;
52878;SDS011;38747;53.140;6.498;2023-11-21T04:55:39;22.98;;;6.72;;
52878;SDS011;38747;53.140;6.498;2023-11-21T04:58:05;31.17;;;6.57;;
52878;SDS011;38747;53.140;6.498;2023-11-21T05:00:31;29.87;;;7.20;;
52878;SDS011;38747;53.140;6.498;2023-11-21T05:02:57;22.30;;;6.47;;
52878;SDS011;38747;53.140;6.498;2023-11-21T05:05:22;29.40;;;6.85;;
52878;SDS011;38747;53.140;6.498;2023-11-21T05:07:49;19.63;;;6.57;;
52878;SDS011;38747;53.140;6.498;2023-11-21T05:10:14;26.92;;;7.55;;
52878;SDS011;38747;53.140;6.498;2023-11-21T05:12:41;22.37;;;6.87;;
52878;SDS011;38747;53.140;6.498;2023-11-21T05:15:07;22.90;;;6.65;;
52878;SDS011;38747;53.140;6.498;2023-11-21T05:17:37;24.08;;;6.63;;
52878;SDS011;38747;53.140;6.498;2023-11-21T05:20:10;25.70;;;6.38;;
52878;SDS011;38747;53.140;6.498;2023-11-21T05:22:38;23.23;;;6.72;;
52878;SDS011;38747;53.140;6.498;2023-11-21T05:25:04;18.93;;;5.60;;
52878;SDS011;38747;53.140;6.498;2023-11-21T05:27:33;25.20;;;6.70;;
52878;SDS011;38747;53.140;6.498;2023-11-21T05:30:00;25.67;;;7.75;;
52878;SDS011;38747;53.140;6.498;2023-11-21T05:32:30;22.50;;;6.72;;
52878;SDS011;38747;53.140;6.498;2023-11-21T05:34:56;27.77;;;6.83;;
52878;SDS011;38747;53.140;6.498;2023-11-21T05:37:21;21.95;;;6.15;;
52878;SDS011;38747;53.140;6.498;2023-11-21T05:39:48;29.42;;;6.97;;
52878;SDS011;38747;53.140;6.498;2023-11-21T05:42:14;24.87;;;6.57;;
52878;SDS011;38747;53.140;6.498;2023-11-21T05:44:41;23.30;;;6.55;;
52878;SDS011;38747;53.140;6.498;2023-11-21T05:47:10;26.85;;;7.05;;
52878;SDS011;38747;53.140;6.498;2023-11-21T05:49:36;19.57;;;5.93;;
52878;SDS011;38747;53.140;6.498;2023-11-21T05:52:02;19.77;;;6.30;;
52878;SDS011;38747;53.140;6.498;2023-11-21T05:54:27;17.67;;;5.27;;
52878;SDS011;38747;53.140;6.498;2023-11-21T05:56:53;15.80;;;4.50;;
52878;SDS011;38747;53.140;6.498;2023-11-21T05:59:19;16.92;;;5.10;;
52878;SDS011;38747;53.140;6.498;2023-11-21T06:01:45;22.00;;;5.63;;
52878;SDS011;38747;53.140;6.498;2023-11-21T06:04:11;19.95;;;6.05;;
52878;SDS011;38747;53.140;6.498;2023-11-21T06:06:37;15.40;;;5.20;;
52878;SDS011;38747;53.140;6.498;2023-11-21T06:09:04;16.55;;;4.57;;
52878;SDS011;38747;53.140;6.498;2023-11-21T06:11:31;15.43;;;4.73;;
52878;SDS011;38747;53.140;6.498;2023-11-21T06:13:56;14.95;;;5.25;;
52878;SDS011;38747;53.140;6.498;2023-11-21T06:16:23;14.88;;;5.10;;
52878;SDS011;38747;53.140;6.498;2023-11-21T06:18:49;18.85;;;5.93;;
52878;SDS011;38747;53.140;6.498;2023-11-21T06:21:15;15.43;;;5.30;;
52878;SDS011;38747;53.140;6.498;2023-11-21T06:23:42;15.60;;;4.93;;
52878;SDS011;38747;53.140;6.498;2023-11-21T06:26:07;18.50;;;5.47;;
52878;SDS011;38747;53.140;6.498;2023-11-21T06:28:34;14.07;;;4.77;;
52878;SDS011;38747;53.140;6.498;2023-11-21T06:31:01;15.40;;;5.30;;
52878;SDS011;38747;53.140;6.498;2023-11-21T06:33:33;17.38;;;5.25;;
52878;SDS011;38747;53.140;6.498;2023-11-21T06:35:59;16.67;;;5.50;;
52878;SDS011;38747;53.140;6.498;2023-11-21T06:38:28;16.92;;;6.05;;
52878;SDS011;38747;53.140;6.498;2023-11-21T06:40:58;13.17;;;4.63;;
52878;SDS011;38747;53.140;6.498;2023-11-21T06:43:26;16.48;;;5.07;;
52878;SDS011;38747;53.140;6.498;2023-11-21T06:45:52;16.48;;;5.28;;
52878;SDS011;38747;53.140;6.498;2023-11-21T06:48:18;15.10;;;4.97;;
52878;SDS011;38747;53.140;6.498;2023-11-21T06:50:43;14.52;;;5.25;;
52878;SDS011;38747;53.140;6.498;2023-11-21T06:53:09;17.27;;;5.57;;
52878;SDS011;38747;53.140;6.498;2023-11-21T06:55:35;16.45;;;5.97;;
52878;SDS011;38747;53.140;6.498;2023-11-21T06:58:00;18.17;;;5.47;;
52878;SDS011;38747;53.140;6.498;2023-11-21T07:00:26;18.17;;;5.75;;
52878;SDS011;38747;53.140;6.498;2023-11-21T07:02:53;15.63;;;6.43;;
52878;SDS011;38747;53.140;6.498;2023-11-21T07:05:20;15.63;;;5.80;;
52878;SDS011;38747;53.140;6.498;2023-11-21T07:07:47;20.27;;;6.60;;
52878;SDS011;38747;53.140;6.498;2023-11-21T07:10:14;18.58;;;6.45;;
52878;SDS011;38747;53.140;6.498;2023-11-21T07:12:40;22.92;;;6.72;;
52878;SDS011;38747;53.140;6.498;2023-11-21T07:15:06;21.50;;;7.10;;
52878;SDS011;38747;53.140;6.498;2023-11-21T07:17:34;21.50;;;6.45;;
52878;SDS011;38747;53.140;6.498;2023-11-21T07:20:00;20.48;;;6.72;;
52878;SDS011;38747;53.140;6.498;2023-11-21T07:22:27;21.92;;;7.00;;
52878;SDS011;38747;53.140;6.498;2023-11-21T07:24:52;16.77;;;6.43;;
52878;SDS011;38747;53.140;6.498;2023-11-21T07:27:18;20.17;;;6.30;;
52878;SDS011;38747;53.140;6.498;2023-11-21T07:29:44;18.77;;;6.10;;
52878;SDS011;38747;53.140;6.498;2023-11-21T07:32:09;18.63;;;6.50;;
52878;SDS011;38747;53.140;6.498;2023-11-21T07:34:36;16.88;;;6.47;;
52878;SDS011;38747;53.140;6.498;2023-11-21T07:37:01;18.97;;;6.83;;
52878;SDS011;38747;53.140;6.498;2023-11-21T07:39:28;18.23;;;6.57;;
52878;SDS011;38747;53.140;6.498;2023-11-21T07:41:53;18.42;;;6.70;;
52878;SDS011;38747;53.140;6.498;2023-11-21T07:44:19;19.73;;;6.30;;
52878;SDS011;38747;53.140;6.498;2023-11-21T07:46:45;18.50;;;6.85;;
52878;SDS011;38747;53.140;6.498;2023-11-21T07:49:11;18.88;;;7.07;;
52878;SDS011;38747;53.140;6.498;2023-11-21T07:51:41;22.00;;;7.85;;
52878;SDS011;38747;53.140;6.498;2023-11-21T07:54:07;20.30;;;7.10;;
52878;SDS011;38747;53.140;6.498;2023-11-21T07:56:32;23.67;;;7.03;;
52878;SDS011;38747;53.140;6.498;2023-11-21T07:58:58;21.93;;;8.10;;
52878;SDS011;38747;53.140;6.498;2023-11-21T08:01:24;23.35;;;7.28;;
52878;SDS011;38747;53.140;6.498;2023-11-21T08:03:50;27.02;;;8.68;;
52878;SDS011;38747;53.140;6.498;2023-11-21T08:06:17;26.53;;;9.00;;
52878;SDS011;38747;53.140;6.498;2023-11-21T08:08:43;23.17;;;8.35;;
52878;SDS011;38747;53.140;6.498;2023-11-21T08:11:08;26.03;;;9.27;;
52878;SDS011;38747;53.140;6.498;2023-11-21T08:13:35;26.20;;;9.77;;
52878;SDS011;38747;53.140;6.498;2023-11-21T08:16:01;25.63;;;9.20;;
52878;SDS011;38747;53.140;6.498;2023-11-21T08:18:28;25.53;;;9.30;;
52878;SDS011;38747;53.140;6.498;2023-11-21T08:20:55;27.42;;;9.73;;
52878;SDS011;38747;53.140;6.498;2023-11-21T08:23:21;31.20;;;10.13;;
52878;SDS011;38747;53.140;6.498;2023-11-21T08:25:53;24.27;;;9.23;;
52878;SDS011;38747;53.140;6.498;2023-11-21T08:28:19;24.40;;;10.33;;
52878;SDS011;38747;53.140;6.498;2023-11-21T08:30:47;29.08;;;9.82;;
52878;SDS011;38747;53.140;6.498;2023-11-21T08:33:13;27.80;;;9.65;;
52878;SDS011;38747;53.140;6.498;2023-11-21T08:35:39;26.23;;;10.20;;
52878;SDS011;38747;53.140;6.498;2023-11-21T08:38:04;26.00;;;9.67;;
52878;SDS011;38747;53.140;6.498;2023-11-21T08:40:30;29.02;;;10.40;;
52878;SDS011;38747;53.140;6.498;2023-11-21T08:42:56;27.30;;;10.00;;
52878;SDS011;38747;53.140;6.498;2023-11-21T08:45:23;27.60;;;10.23;;
52878;SDS011;38747;53.140;6.498;2023-11-21T08:47:51;27.00;;;10.10;;
52878;SDS011;38747;53.140;6.498;2023-11-21T08:50:16;29.27;;;10.40;;
52878;SDS011;38747;53.140;6.498;2023-11-21T08:52:43;28.63;;;9.95;;
52878;SDS011;38747;53.140;6.498;2023-11-21T08:55:10;26.38;;;9.10;;
52878;SDS011;38747;53.140;6.498;2023-11-21T08:57:39;25.08;;;9.93;;
52878;SDS011;38747;53.140;6.498;2023-11-21T09:00:09;28.63;;;10.30;;
52878;SDS011;38747;53.140;6.498;2023-11-21T09:02:41;27.38;;;9.80;;
52878;SDS011;38747;53.140;6.498;2023-11-21T09:05:07;27.80;;;10.05;;
52878;SDS011;38747;53.140;6.498;2023-11-21T09:07:34;26.35;;;10.30;;
52878;SDS011;38747;53.140;6.498;2023-11-21T09:10:00;25.70;;;9.93;;
52878;SDS011;38747;53.140;6.498;2023-11-21T09:12:27;27.77;;;10.73;;
52878;SDS011;38747;53.140;6.498;2023-11-21T09:14:52;27.65;;;11.68;;
52878;SDS011;38747;53.140;6.498;2023-11-21T09:17:18;25.13;;;10.32;;
52878;SDS011;38747;53.140;6.498;2023-11-21T09:19:44;26.97;;;10.77;;
52878;SDS011;38747;53.140;6.498;2023-11-21T09:22:14;25.42;;;11.40;;
52878;SDS011;38747;53.140;6.498;2023-11-21T09:24:40;27.45;;;11.40;;
52878;SDS011;38747;53.140;6.498;2023-11-21T09:27:07;26.15;;;11.07;;
52878;SDS011;38747;53.140;6.498;2023-11-21T09:29:33;22.73;;;10.50;;
52878;SDS011;38747;53.140;6.498;2023-11-21T09:31:58;21.20;;;9.63;;
52878;SDS011;38747;53.140;6.498;2023-11-21T09:34:24;19.80;;;9.80;;
52878;SDS011;38747;53.140;6.498;2023-11-21T09:36:50;21.83;;;9.15;;
52878;SDS011;38747;53.140;6.498;2023-11-21T09:39:16;19.73;;;8.67;;
52878;SDS011;38747;53.140;6.498;2023-11-21T09:41:44;16.30;;;8.23;;
52878;SDS011;38747;53.140;6.498;2023-11-21T09:44:18;17.05;;;8.35;;
52878;SDS011;38747;53.140;6.498;2023-11-21T09:46:48;16.52;;;7.97;;
52878;SDS011;38747;53.140;6.498;2023-11-21T09:49:20;18.00;;;8.43;;
52878;SDS011;38747;53.140;6.498;2023-11-21T09:51:50;14.87;;;7.73;;
52878;SDS011;38747;53.140;6.498;2023-11-21T09:54:20;15.35;;;7.55;;
52878;SDS011;38747;53.140;6.498;2023-11-21T09:56:46;14.57;;;7.18;;
52878;SDS011;38747;53.140;6.498;2023-11-21T09:59:13;14.65;;;7.60;;
52878;SDS011;38747;53.140;6.498;2023-11-21T10:01:40;15.65;;;7.25;;
52878;SDS011;38747;53.140;6.498;2023-11-21T10:04:07;14.60;;;6.93;;
52878;SDS011;38747;53.140;6.498;2023-11-21T10:06:38;15.32;;;7.00;;
52878;SDS011;38747;53.140;6.498;2023-11-21T10:09:06;15.45;;;7.18;;
52878;SDS011;38747;53.140;6.498;2023-11-21T10:11:38;14.80;;;6.75;;
52878;SDS011;38747;53.140;6.498;2023-11-21T10:14:06;14.32;;;6.75;;
52878;SDS011;38747;53.140;6.498;2023-11-21T10:16:35;12.97;;;6.33;;
52878;SDS011;38747;53.140;6.498;2023-11-21T10:19:04;14.07;;;5.90;;
52878;SDS011;38747;53.140;6.498;2023-11-21T10:21:34;13.15;;;5.88;;
52878;SDS011;38747;53.140;6.498;2023-11-21T10:24:00;12.32;;;5.93;;
52878;SDS011;38747;53.140;6.498;2023-11-21T10:26:26;13.47;;;6.43;;
52878;SDS011;38747;53.140;6.498;2023-11-21T10:28:59;13.73;;;6.32;;
52878;SDS011;38747;53.140;6.498;2023-11-21T10:31:28;12.23;;;5.20;;
52878;SDS011;38747;53.140;6.498;2023-11-21T10:36:39;12.30;;;5.60;;
52878;SDS011;38747;53.140;6.498;2023-11-21T10:39:05;10.80;;;5.00;;
52878;SDS011;38747;53.140;6.498;2023-11-21T10:41:30;11.57;;;5.33;;
52878;SDS011;38747;53.140;6.498;2023-11-21T10:43:57;10.77;;;4.95;;
52878;SDS011;38747;53.140;6.498;2023-11-21T10:46:23;11.45;;;4.90;;
52878;SDS011;38747;53.140;6.498;2023-11-21T10:48:54;12.30;;;5.23;;
52878;SDS011;38747;53.140;6.498;2023-11-21T10:51:21;10.85;;;5.07;;
52878;SDS011;38747;53.140;6.498;2023-11-21T10:53:46;11.30;;;4.85;;
52878;SDS011;38747;53.140;6.498;2023-11-21T10:56:13;9.93;;;4.60;;
52878;SDS011;38747;53.140;6.498;2023-11-21T10:58:45;9.83;;;4.20;;
52878;SDS011;38747;53.140;6.498;2023-11-21T11:01:11;8.98;;;3.70;;
52878;SDS011;38747;53.140;6.498;2023-11-21T11:03:39;9.15;;;4.07;;
52878;SDS011;38747;53.140;6.498;2023-11-21T11:06:06;11.02;;;3.67;;
52878;SDS011;38747;53.140;6.498;2023-11-21T11:08:38;9.00;;;3.95;;
52878;SDS011;38747;53.140;6.498;2023-11-21T11:11:07;8.20;;;3.53;;
52878;SDS011;38747;53.140;6.498;2023-11-21T11:13:35;7.85;;;3.90;;
52878;SDS011;38747;53.140;6.498;2023-11-21T11:16:03;9.10;;;3.65;;
52878;SDS011;38747;53.140;6.498;2023-11-21T11:18:32;8.43;;;3.50;;
52878;SDS011;38747;53.140;6.498;2023-11-21T11:21:11;8.30;;;3.53;;
52878;SDS011;38747;53.140;6.498;2023-11-21T11:34:41;8.13;;;3.20;;
52878;SDS011;38747;53.140;6.498;2023-11-21T11:37:24;9.10;;;3.90;;
52878;SDS011;38747;53.140;6.498;2023-11-21T11:39:49;8.75;;;4.57;;
52878;SDS011;38747;53.140;6.498;2023-11-21T11:42:16;8.15;;;3.42;;
52878;SDS011;38747;53.140;6.498;2023-11-21T11:55:14;8.13;;;3.20;;
52878;SDS011;38747;53.140;6.498;2023-11-21T11:57:44;6.67;;;2.77;;
52878;SDS011;38747;53.140;6.498;2023-11-21T12:00:18;7.57;;;2.78;;
52878;SDS011;38747;53.140;6.498;2023-11-21T12:02:56;7.55;;;3.35;;
52878;SDS011;38747;53.140;6.498;2023-11-21T12:05:24;7.22;;;3.17;;
52878;SDS011;38747;53.140;6.498;2023-11-21T12:07:55;7.28;;;3.10;;
52878;SDS011;38747;53.140;6.498;2023-11-21T12:10:32;7.07;;;3.00;;
52878;SDS011;38747;53.140;6.498;2023-11-21T12:13:00;6.53;;;2.90;;
52878;SDS011;38747;53.140;6.498;2023-11-21T12:15:27;6.90;;;3.15;;
52878;SDS011;38747;53.140;6.498;2023-11-21T12:17:55;7.40;;;3.03;;
52878;SDS011;38747;53.140;6.498;2023-11-21T12:20:22;7.38;;;3.35;;
52878;SDS011;38747;53.140;6.498;2023-11-21T12:22:52;7.70;;;3.03;;
52878;SDS011;38747;53.140;6.498;2023-11-21T12:25:20;9.05;;;3.53;;
52878;SDS011;38747;53.140;6.498;2023-11-21T12:27:52;8.15;;;3.40;;
52878;SDS011;38747;53.140;6.498;2023-11-21T12:30:19;7.43;;;3.08;;
52878;SDS011;38747;53.140;6.498;2023-11-21T12:32:50;8.65;;;3.28;;
52878;SDS011;38747;53.140;6.498;2023-11-21T12:35:17;6.80;;;3.17;;
52878;SDS011;38747;53.140;6.498;2023-11-21T12:37:47;7.05;;;3.30;;
52878;SDS011;38747;53.140;6.498;2023-11-21T12:40:13;7.25;;;3.15;;
52878;SDS011;38747;53.140;6.498;2023-11-21T12:42:59;7.40;;;3.50;;
52878;SDS011;38747;53.140;6.498;2023-11-21T12:45:26;6.97;;;3.30;;
52878;SDS011;38747;53.140;6.498;2023-11-21T12:47:57;9.20;;;3.53;;
52878;SDS011;38747;53.140;6.498;2023-11-21T12:50:32;8.10;;;3.70;;
52878;SDS011;38747;53.140;6.498;2023-11-21T12:53:05;9.63;;;4.25;;
52878;SDS011;38747;53.140;6.498;2023-11-21T12:55:37;8.65;;;4.10;;
52878;SDS011;38747;53.140;6.498;2023-11-21T12:58:04;8.23;;;4.10;;
52878;SDS011;38747;53.140;6.498;2023-11-21T13:00:38;8.48;;;3.83;;
52878;SDS011;38747;53.140;6.498;2023-11-21T13:03:08;8.98;;;4.10;;
52878;SDS011;38747;53.140;6.498;2023-11-21T13:05:36;8.02;;;3.90;;
52878;SDS011;38747;53.140;6.498;2023-11-21T13:08:09;8.88;;;4.32;;
52878;SDS011;38747;53.140;6.498;2023-11-21T13:10:38;7.90;;;3.73;;
52878;SDS011;38747;53.140;6.498;2023-11-21T13:13:05;8.68;;;3.67;;
52878;SDS011;38747;53.140;6.498;2023-11-21T13:15:33;9.60;;;4.22;;
52878;SDS011;38747;53.140;6.498;2023-11-21T13:18:01;10.52;;;4.50;;
52878;SDS011;38747;53.140;6.498;2023-11-21T13:20:27;9.23;;;4.30;;
52878;SDS011;38747;53.140;6.498;2023-11-21T13:22:57;8.27;;;4.30;;
52878;SDS011;38747;53.140;6.498;2023-11-21T13:25:27;9.32;;;4.45;;
52878;SDS011;38747;53.140;6.498;2023-11-21T13:27:54;9.00;;;3.78;;
52878;SDS011;38747;53.140;6.498;2023-11-21T13:30:20;8.25;;;4.00;;
52878;SDS011;38747;53.140;6.498;2023-11-21T13:32:51;10.70;;;4.50;;
52878;SDS011;38747;53.140;6.498;2023-11-21T13:35:17;9.20;;;3.75;;
52878;SDS011;38747;53.140;6.498;2023-11-21T13:37:55;8.32;;;3.65;;
52878;SDS011;38747;53.140;6.498;2023-11-21T13:40:25;7.82;;;3.72;;
52878;SDS011;38747;53.140;6.498;2023-11-21T13:42:55;7.53;;;3.38;;
52878;SDS011;38747;53.140;6.498;2023-11-21T13:45:24;6.50;;;3.50;;
52878;SDS011;38747;53.140;6.498;2023-11-21T13:47:52;8.95;;;3.40;;
52878;SDS011;38747;53.140;6.498;2023-11-21T13:50:26;7.57;;;3.50;;
52878;SDS011;38747;53.140;6.498;2023-11-21T13:52:58;8.40;;;3.80;;
52878;SDS011;38747;53.140;6.498;2023-11-21T13:55:29;8.50;;;3.55;;
52878;SDS011;38747;53.140;6.498;2023-11-21T13:57:54;9.23;;;3.40;;
52878;SDS011;38747;53.140;6.498;2023-11-21T14:00:20;8.75;;;3.38;;
52878;SDS011;38747;53.140;6.498;2023-11-21T14:03:06;8.52;;;3.70;;
52878;SDS011;38747;53.140;6.498;2023-11-21T14:05:42;8.23;;;2.80;;
52878;SDS011;38747;53.140;6.498;2023-11-21T14:08:10;7.57;;;3.38;;
52878;SDS011;38747;53.140;6.498;2023-11-21T14:10:38;7.03;;;3.00;;
52878;SDS011;38747;53.140;6.498;2023-11-21T14:13:08;9.30;;;3.20;;
52878;SDS011;38747;53.140;6.498;2023-11-21T14:15:36;7.68;;;3.28;;
52878;SDS011;38747;53.140;6.498;2023-11-21T14:18:08;8.60;;;3.43;;
52878;SDS011;38747;53.140;6.498;2023-11-21T14:20:39;9.05;;;3.17;;
52878;SDS011;38747;53.140;6.498;2023-11-21T14:23:06;7.30;;;3.55;;
52878;SDS011;38747;53.140;6.498;2023-11-21T14:25:33;6.60;;;3.33;;
52878;SDS011;38747;53.140;6.498;2023-11-21T14:28:00;8.43;;;3.05;;
52878;SDS011;38747;53.140;6.498;2023-11-21T14:30:26;6.87;;;3.30;;
52878;SDS011;38747;53.140;6.498;2023-11-21T14:32:52;7.72;;;3.55;;
52878;SDS011;38747;53.140;6.498;2023-11-21T14:35:18;7.90;;;3.70;;
52878;SDS011;38747;53.140;6.498;2023-11-21T14:37:44;6.33;;;3.40;;
52878;SDS011;38747;53.140;6.498;2023-11-21T14:40:11;7.80;;;3.40;;
52878;SDS011;38747;53.140;6.498;2023-11-21T14:42:40;9.23;;;3.25;;
52878;SDS011;38747;53.140;6.498;2023-11-21T14:45:07;7.03;;;3.00;;
52878;SDS011;38747;53.140;6.498;2023-11-21T14:47:33;8.65;;;3.13;;
52878;SDS011;38747;53.140;6.498;2023-11-21T14:50:00;7.40;;;3.17;;
52878;SDS011;38747;53.140;6.498;2023-11-21T14:52:44;6.45;;;2.80;;
52878;SDS011;38747;53.140;6.498;2023-11-21T14:55:20;7.20;;;2.75;;
52878;SDS011;38747;53.140;6.498;2023-11-21T14:57:56;7.95;;;2.97;;
52878;SDS011;38747;53.140;6.498;2023-11-21T15:00:27;6.85;;;3.05;;
52878;SDS011;38747;53.140;6.498;2023-11-21T15:03:01;8.00;;;3.00;;
52878;SDS011;38747;53.140;6.498;2023-11-21T15:05:28;6.65;;;2.63;;